Linzy — SIRU — position and weather

sailwx.info

Track history (hours):
 
Tides and Currents Weather Stations Pressure Air Temp Water Temp Dewpoint Dewpoint Depression Visibility Wind Speed Wind Dir Waves Ship Positions

Linzy

Last reported at 2016-Sep-27 23:30 UTC. Time now 2016-Sep-28 01:42 UTC.
Position N 55°33' E 014°22'.

Length 15 m.

Type: Fishing. MMSI: 265507290.

Date/timePositionNaut miles runAvg speedWind from/ knotsBaromVisibWave heightAir tempDewpointWater temp
2016-Sep-27 23:30N 55°33' E 014°22'0 0.0
2016-Sep-27 19:25N 55°33' E 014°22'17 3.4
2016-Sep-27 14:33N 55°18' E 014°11'2 2.2
2016-Sep-27 13:33N 55°16' E 014°12'6 2.0
2016-Sep-27 10:33N 55°20' E 014°20'14 1.4
2016-Sep-27 00:28N 55°33' E 014°22'0 0.0
2016-Sep-26 20:28N 55°33' E 014°22'0 0.0
2016-Sep-26 19:28N 55°33' E 014°22'13 2.2
2016-Sep-26 13:33N 55°21' E 014°21'4 2.1
2016-Sep-26 11:32N 55°18' E 014°15'3 1.1
2016-Sep-26 08:32N 55°20' E 014°20'14 2.3
2016-Sep-26 02:29N 55°33' E 014°22'0 0.0
2016-Sep-26 01:29N 55°33' E 014°22'0 0.0
2016-Sep-26 00:29N 55°33' E 014°22'0 0.0
2016-Sep-25 21:29N 55°33' E 014°22'0 0.0
2016-Sep-25 17:29N 55°33' E 014°21'0 0.0
2016-Sep-25 16:29N 55°33' E 014°22'0 0.0
2016-Sep-25 15:29N 55°33' E 014°22'0 0.0
2016-Sep-25 14:17N 55°33' E 014°22'0 0.0
2016-Sep-25 12:29N 55°33' E 014°22'0 0.0
2016-Sep-25 11:29N 55°33' E 014°22'0 0.0
2016-Sep-25 10:23N 55°33' E 014°22'0 0.0
2016-Sep-25 07:29N 55°33' E 014°22'0 0.0
2016-Sep-25 04:29N 55°33' E 014°22'0 0.0
2016-Sep-25 00:23N 55°33' E 014°22'0 0.0
2016-Sep-24 22:29N 55°33' E 014°22'0 0.0
2016-Sep-24 21:23N 55°33' E 014°22'0 0.0
2016-Sep-24 19:17N 55°33' E 014°22'0 0.0
2016-Sep-24 18:11N 55°33' E 014°21'0 0.0
2016-Sep-24 17:29N 55°33' E 014°22'0 0.0
2016-Sep-24 16:05N 55°33' E 014°22'0 0.0
2016-Sep-24 14:29N 55°33' E 014°21'0 0.0
2016-Sep-24 12:29N 55°33' E 014°22'0 0.0
2016-Sep-24 09:29N 55°33' E 014°22'0 0.0
2016-Sep-24 03:23N 55°33' E 014°22'0 0.0
2016-Sep-24 02:29N 55°33' E 014°22'0 0.0
2016-Sep-24 01:29N 55°33' E 014°22'0 0.0
2016-Sep-24 00:29N 55°33' E 014°22'0 0.0
2016-Sep-23 19:11N 55°33' E 014°22'0 0.0
2016-Sep-23 17:29N 55°33' E 014°22'0 0.0
2016-Sep-23 16:23N 55°33' E 014°22'0 0.0
2016-Sep-23 15:23N 55°33' E 014°22'0 0.0
2016-Sep-23 13:23N 55°33' E 014°22'0 0.0
2016-Sep-23 06:24N 55°33' E 014°22'0 0.0
2016-Sep-23 04:18N 55°33' E 014°22'0 0.0
2016-Sep-23 03:24N 55°33' E 014°22'0 0.0
2016-Sep-23 02:30N 55°33' E 014°22'0 0.0
2016-Sep-23 01:30N 55°33' E 014°22'0 0.0
2016-Sep-23 00:24N 55°33' E 014°22'0 0.0
2016-Sep-22 23:30N 55°33' E 014°22'0 0.0
2016-Sep-22 20:30N 55°33' E 014°22'13 1.7
2016-Sep-22 12:33N 55°20' E 014°21'5 0.6
2016-Sep-22 04:33N 55°23' E 014°26'8 8.4
2016-Sep-22 03:33N 55°32' E 014°23'2 0.7
2016-Sep-22 00:32N 55°33' E 014°22'0 0.0
2016-Sep-21 23:32N 55°33' E 014°22'0 0.0
2016-Sep-21 22:32N 55°33' E 014°22'0 0.0
2016-Sep-21 19:32N 55°33' E 014°22'0 0.0
2016-Sep-21 16:32N 55°33' E 014°22'19 2.8
2016-Sep-21 09:33N 55°15' E 014°11'1 0.7
2016-Sep-21 08:33N 55°15' E 014°10'9 3.0
2016-Sep-21 05:33N 55°21' E 014°23'12 5.8
2016-Sep-21 03:33N 55°32' E 014°23'1 1.2
2016-Sep-21 02:28N 55°33' E 014°22'0 0.0
2016-Sep-20 17:28N 55°33' E 014°22'12 4.2
2016-Sep-20 14:33N 55°39' E 014°41'4 0.7
2016-Sep-20 08:25N 55°35' E 014°37'3 3.0
2016-Sep-20 07:17N 55°32' E 014°41'1 1.7
2016-Sep-20 06:33N 55°32' E 014°39'10 2.3
2016-Sep-20 02:15N 55°33' E 014°22'0 0.0
2016-Sep-19 23:33N 55°33' E 014°22'0 0.0
2016-Sep-19 19:33N 55°33' E 014°22'0 0.0
2016-Sep-19 18:15N 55°33' E 014°22'0 0.0
2016-Sep-19 16:21N 55°33' E 014°22'0 0.0
2016-Sep-19 14:33N 55°33' E 014°22'0 0.0
2016-Sep-19 13:33N 55°33' E 014°22'0 0.0
2016-Sep-19 12:21N 55°33' E 014°22'0 0.0
2016-Sep-19 11:33N 55°33' E 014°22'0 0.0
2016-Sep-19 09:21N 55°33' E 014°22'0 0.0
2016-Sep-19 07:09N 55°33' E 014°22'0 0.0
2016-Sep-19 06:33N 55°33' E 014°22'0 0.0
2016-Sep-19 03:21N 55°33' E 014°22'0 0.0
2016-Sep-19 02:33N 55°33' E 014°22'0 0.0
2016-Sep-19 00:27N 55°33' E 014°22'0 0.0
2016-Sep-18 19:33N 55°33' E 014°22'0 0.0
2016-Sep-18 15:21N 55°33' E 014°22'0 0.0
2016-Sep-18 14:33N 55°33' E 014°22'0 0.0
2016-Sep-18 10:27N 55°33' E 014°22'0 0.0
2016-Sep-18 09:33N 55°33' E 014°22'0 0.0
2016-Sep-18 02:33N 55°33' E 014°22'0 0.0
2016-Sep-18 01:33N 55°33' E 014°22'0 0.0
2016-Sep-18 00:33N 55°33' E 014°22'  
Track history (hours):
 
Tides and Currents Weather Stations Pressure Air Temp Water Temp Dewpoint Dewpoint Depression Visibility Wind Speed Wind Dir Waves Ship Positions

Linzy

Last reported at 2016-Sep-27 23:30 UTC. Time now 2016-Sep-28 01:42 UTC.
Position N 55°33' E 014°22'.

Length 15 m.

Type: Fishing. MMSI: 265507290.

Date/timePositionNaut miles runAvg speedWind from/ knotsBaromVisibWave heightAir tempDewpointWater temp
2016-Sep-27 23:30N 55°33' E 014°22'0 0.0
2016-Sep-27 19:25N 55°33' E 014°22'17 3.4
2016-Sep-27 14:33N 55°18' E 014°11'2 2.2
2016-Sep-27 13:33N 55°16' E 014°12'6 2.0
2016-Sep-27 10:33N 55°20' E 014°20'14 1.4
2016-Sep-27 00:28N 55°33' E 014°22'0 0.0
2016-Sep-26 20:28N 55°33' E 014°22'0 0.0
2016-Sep-26 19:28N 55°33' E 014°22'13 2.2
2016-Sep-26 13:33N 55°21' E 014°21'4 2.1
2016-Sep-26 11:32N 55°18' E 014°15'3 1.1
2016-Sep-26 08:32N 55°20' E 014°20'14 2.3
2016-Sep-26 02:29N 55°33' E 014°22'0 0.0
2016-Sep-26 01:29N 55°33' E 014°22'0 0.0
2016-Sep-26 00:29N 55°33' E 014°22'0 0.0
2016-Sep-25 21:29N 55°33' E 014°22'0 0.0
2016-Sep-25 17:29N 55°33' E 014°21'0 0.0
2016-Sep-25 16:29N 55°33' E 014°22'0 0.0
2016-Sep-25 15:29N 55°33' E 014°22'0 0.0
2016-Sep-25 14:17N 55°33' E 014°22'0 0.0
2016-Sep-25 12:29N 55°33' E 014°22'0 0.0
2016-Sep-25 11:29N 55°33' E 014°22'0 0.0
2016-Sep-25 10:23N 55°33' E 014°22'0 0.0
2016-Sep-25 07:29N 55°33' E 014°22'0 0.0
2016-Sep-25 04:29N 55°33' E 014°22'0 0.0
2016-Sep-25 00:23N 55°33' E 014°22'0 0.0
2016-Sep-24 22:29N 55°33' E 014°22'0 0.0
2016-Sep-24 21:23N 55°33' E 014°22'0 0.0
2016-Sep-24 19:17N 55°33' E 014°22'0 0.0
2016-Sep-24 18:11N 55°33' E 014°21'0 0.0
2016-Sep-24 17:29N 55°33' E 014°22'0 0.0
2016-Sep-24 16:05N 55°33' E 014°22'0 0.0
2016-Sep-24 14:29N 55°33' E 014°21'0 0.0
2016-Sep-24 12:29N 55°33' E 014°22'0 0.0
2016-Sep-24 09:29N 55°33' E 014°22'0 0.0
2016-Sep-24 03:23N 55°33' E 014°22'0 0.0
2016-Sep-24 02:29N 55°33' E 014°22'0 0.0
2016-Sep-24 01:29N 55°33' E 014°22'0 0.0
2016-Sep-24 00:29N 55°33' E 014°22'0 0.0
2016-Sep-23 19:11N 55°33' E 014°22'0 0.0
2016-Sep-23 17:29N 55°33' E 014°22'0 0.0
2016-Sep-23 16:23N 55°33' E 014°22'0 0.0
2016-Sep-23 15:23N 55°33' E 014°22'0 0.0
2016-Sep-23 13:23N 55°33' E 014°22'0 0.0
2016-Sep-23 06:24N 55°33' E 014°22'0 0.0
2016-Sep-23 04:18N 55°33' E 014°22'0 0.0
2016-Sep-23 03:24N 55°33' E 014°22'0 0.0
2016-Sep-23 02:30N 55°33' E 014°22'0 0.0
2016-Sep-23 01:30N 55°33' E 014°22'0 0.0
2016-Sep-23 00:24N 55°33' E 014°22'0 0.0
2016-Sep-22 23:30N 55°33' E 014°22'0 0.0
2016-Sep-22 20:30N 55°33' E 014°22'13 1.7
2016-Sep-22 12:33N 55°20' E 014°21'5 0.6
2016-Sep-22 04:33N 55°23' E 014°26'8 8.4
2016-Sep-22 03:33N 55°32' E 014°23'2 0.7
2016-Sep-22 00:32N 55°33' E 014°22'0 0.0
2016-Sep-21 23:32N 55°33' E 014°22'0 0.0
2016-Sep-21 22:32N 55°33' E 014°22'0 0.0
2016-Sep-21 19:32N 55°33' E 014°22'0 0.0
2016-Sep-21 16:32N 55°33' E 014°22'19 2.8
2016-Sep-21 09:33N 55°15' E 014°11'1 0.7
2016-Sep-21 08:33N 55°15' E 014°10'9 3.0
2016-Sep-21 05:33N 55°21' E 014°23'12 5.8
2016-Sep-21 03:33N 55°32' E 014°23'1 1.2
2016-Sep-21 02:28N 55°33' E 014°22'0 0.0
2016-Sep-20 17:28N 55°33' E 014°22'12 4.2
2016-Sep-20 14:33N 55°39' E 014°41'4 0.7
2016-Sep-20 08:25N 55°35' E 014°37'3 3.0
2016-Sep-20 07:17N 55°32' E 014°41'1 1.7
2016-Sep-20 06:33N 55°32' E 014°39'10 2.3
2016-Sep-20 02:15N 55°33' E 014°22'0 0.0
2016-Sep-19 23:33N 55°33' E 014°22'0 0.0
2016-Sep-19 19:33N 55°33' E 014°22'0 0.0
2016-Sep-19 18:15N 55°33' E 014°22'0 0.0
2016-Sep-19 16:21N 55°33' E 014°22'0 0.0
2016-Sep-19 14:33N 55°33' E 014°22'0 0.0
2016-Sep-19 13:33N 55°33' E 014°22'0 0.0
2016-Sep-19 12:21N 55°33' E 014°22'0 0.0
2016-Sep-19 11:33N 55°33' E 014°22'0 0.0
2016-Sep-19 09:21N 55°33' E 014°22'0 0.0
2016-Sep-19 07:09N 55°33' E 014°22'0 0.0
2016-Sep-19 06:33N 55°33' E 014°22'0 0.0
2016-Sep-19 03:21N 55°33' E 014°22'0 0.0
2016-Sep-19 02:33N 55°33' E 014°22'0 0.0
2016-Sep-19 00:27N 55°33' E 014°22'0 0.0
2016-Sep-18 19:33N 55°33' E 014°22'0 0.0
2016-Sep-18 15:21N 55°33' E 014°22'0 0.0
2016-Sep-18 14:33N 55°33' E 014°22'0 0.0
2016-Sep-18 10:27N 55°33' E 014°22'0 0.0
2016-Sep-18 09:33N 55°33' E 014°22'0 0.0
2016-Sep-18 02:33N 55°33' E 014°22'0 0.0
2016-Sep-18 01:33N 55°33' E 014°22'0 0.0
2016-Sep-18 00:33N 55°33' E 014°22'  

Dump ship's entire track history